sensor_id;sensor_type;location;lat;lon;timestamp;temperature;humidity
21646;DHT22;10984;45.712;4.800;2022-10-15T00:01:16;13.00;99.90
21646;DHT22;10984;45.712;4.800;2022-10-15T00:03:43;13.00;99.90
21646;DHT22;10984;45.712;4.800;2022-10-15T00:06:12;13.00;99.90
21646;DHT22;10984;45.712;4.800;2022-10-15T00:08:38;13.00;99.90
21646;DHT22;10984;45.712;4.800;2022-10-15T00:13:55;12.90;99.90
21646;DHT22;10984;45.712;4.800;2022-10-15T00:16:23;12.90;99.90
21646;DHT22;10984;45.712;4.800;2022-10-15T00:18:50;12.90;99.90
21646;DHT22;10984;45.712;4.800;2022-10-15T00:21:18;12.80;99.90
21646;DHT22;10984;45.712;4.800;2022-10-15T00:23:45;12.80;99.90
21646;DHT22;10984;45.712;4.800;2022-10-15T00:26:17;12.80;99.90
21646;DHT22;10984;45.712;4.800;2022-10-15T00:28:43;12.80;99.90
21646;DHT22;10984;45.712;4.800;2022-10-15T00:31:12;12.80;99.90
21646;DHT22;10984;45.712;4.800;2022-10-15T00:33:38;12.80;99.90
21646;DHT22;10984;45.712;4.800;2022-10-15T00:36:07;12.80;99.90
21646;DHT22;10984;45.712;4.800;2022-10-15T00:38:33;12.70;99.90
21646;DHT22;10984;45.712;4.800;2022-10-15T00:40:59;12.70;99.90
21646;DHT22;10984;45.712;4.800;2022-10-15T00:46:47;12.70;99.90
21646;DHT22;10984;45.712;4.800;2022-10-15T00:52:18;12.70;99.90
21646;DHT22;10984;45.712;4.800;2022-10-15T00:54:51;12.70;99.90
21646;DHT22;10984;45.712;4.800;2022-10-15T00:57:17;12.70;99.90
21646;DHT22;10984;45.712;4.800;2022-10-15T00:59:49;12.70;99.90
21646;DHT22;10984;45.712;4.800;2022-10-15T01:02:18;12.70;99.90
21646;DHT22;10984;45.712;4.800;2022-10-15T01:04:45;12.70;99.90
21646;DHT22;10984;45.712;4.800;2022-10-15T01:07:11;12.70;99.90
21646;DHT22;10984;45.712;4.800;2022-10-15T01:09:37;12.70;99.90
21646;DHT22;10984;45.712;4.800;2022-10-15T01:12:04;12.70;99.90
21646;DHT22;10984;45.712;4.800;2022-10-15T01:17:54;12.70;99.90
21646;DHT22;10984;45.712;4.800;2022-10-15T01:35:39;12.60;99.90
21646;DHT22;10984;45.712;4.800;2022-10-15T01:38:32;12.50;99.90
21646;DHT22;10984;45.712;4.800;2022-10-15T01:40:57;12.50;99.90
21646;DHT22;10984;45.712;4.800;2022-10-15T01:49:14;12.50;99.90
21646;DHT22;10984;45.712;4.800;2022-10-15T01:51:47;12.40;99.90
21646;DHT22;10984;45.712;4.800;2022-10-15T01:54:16;12.50;99.90
21646;DHT22;10984;45.712;4.800;2022-10-15T01:56:45;12.50;99.90
21646;DHT22;10984;45.712;4.800;2022-10-15T01:59:19;12.40;99.90
21646;DHT22;10984;45.712;4.800;2022-10-15T02:01:45;12.40;99.90
21646;DHT22;10984;45.712;4.800;2022-10-15T02:04:30;12.40;99.90
21646;DHT22;10984;45.712;4.800;2022-10-15T02:10:20;12.30;99.90
21646;DHT22;10984;45.712;4.800;2022-10-15T02:22:20;12.30;99.90
21646;DHT22;10984;45.712;4.800;2022-10-15T02:27:36;12.40;99.90
21646;DHT22;10984;45.712;4.800;2022-10-15T02:30:06;12.30;99.90
21646;DHT22;10984;45.712;4.800;2022-10-15T02:32:34;12.30;99.90
21646;DHT22;10984;45.712;4.800;2022-10-15T02:35:00;12.30;99.90
21646;DHT22;10984;45.712;4.800;2022-10-15T02:37:28;12.20;99.90
21646;DHT22;10984;45.712;4.800;2022-10-15T02:39:54;12.30;99.90
21646;DHT22;10984;45.712;4.800;2022-10-15T02:42:20;12.20;99.90
21646;DHT22;10984;45.712;4.800;2022-10-15T02:44:46;12.20;99.90
21646;DHT22;10984;45.712;4.800;2022-10-15T02:47:12;12.20;99.90
21646;DHT22;10984;45.712;4.800;2022-10-15T02:49:37;12.20;99.90
21646;DHT22;10984;45.712;4.800;2022-10-15T02:52:03;12.20;99.90
21646;DHT22;10984;45.712;4.800;2022-10-15T02:54:29;12.10;99.90
21646;DHT22;10984;45.712;4.800;2022-10-15T02:56:54;12.10;99.90
21646;DHT22;10984;45.712;4.800;2022-10-15T02:59:20;12.00;99.90
21646;DHT22;10984;45.712;4.800;2022-10-15T03:01:46;12.00;99.90
21646;DHT22;10984;45.712;4.800;2022-10-15T03:04:12;12.00;99.90
21646;DHT22;10984;45.712;4.800;2022-10-15T03:06:38;12.00;99.90
21646;DHT22;10984;45.712;4.800;2022-10-15T03:09:03;12.00;99.90
21646;DHT22;10984;45.712;4.800;2022-10-15T03:11:29;12.00;99.90
21646;DHT22;10984;45.712;4.800;2022-10-15T03:13:55;11.90;99.90
21646;DHT22;10984;45.712;4.800;2022-10-15T03:16:21;11.90;99.90
21646;DHT22;10984;45.712;4.800;2022-10-15T03:18:46;11.90;99.90
21646;DHT22;10984;45.712;4.800;2022-10-15T03:21:12;11.90;99.90
21646;DHT22;10984;45.712;4.800;2022-10-15T03:23:38;11.80;99.90
21646;DHT22;10984;45.712;4.800;2022-10-15T03:26:03;11.90;99.90
21646;DHT22;10984;45.712;4.800;2022-10-15T03:28:29;11.80;99.90
21646;DHT22;10984;45.712;4.800;2022-10-15T03:30:55;11.80;99.90
21646;DHT22;10984;45.712;4.800;2022-10-15T03:33:20;11.80;99.90
21646;DHT22;10984;45.712;4.800;2022-10-15T03:35:46;11.90;99.90
21646;DHT22;10984;45.712;4.800;2022-10-15T03:38:12;11.90;99.90
21646;DHT22;10984;45.712;4.800;2022-10-15T03:40:37;11.90;99.90
21646;DHT22;10984;45.712;4.800;2022-10-15T03:43:03;11.90;99.90
21646;DHT22;10984;45.712;4.800;2022-10-15T03:45:29;11.90;99.90
21646;DHT22;10984;45.712;4.800;2022-10-15T03:47:54;11.90;99.90
21646;DHT22;10984;45.712;4.800;2022-10-15T03:50:20;11.90;99.90
21646;DHT22;10984;45.712;4.800;2022-10-15T03:52:46;11.90;99.90
21646;DHT22;10984;45.712;4.800;2022-10-15T03:55:11;11.90;99.90
21646;DHT22;10984;45.712;4.800;2022-10-15T03:57:38;11.90;99.90
21646;DHT22;10984;45.712;4.800;2022-10-15T04:00:05;11.90;99.90
21646;DHT22;10984;45.712;4.800;2022-10-15T04:02:31;11.90;99.90
21646;DHT22;10984;45.712;4.800;2022-10-15T04:04:57;11.90;99.90
21646;DHT22;10984;45.712;4.800;2022-10-15T04:07:23;11.90;99.90
21646;DHT22;10984;45.712;4.800;2022-10-15T04:09:48;11.90;99.90
21646;DHT22;10984;45.712;4.800;2022-10-15T04:12:15;11.90;99.90
21646;DHT22;10984;45.712;4.800;2022-10-15T04:14:41;11.90;99.90
21646;DHT22;10984;45.712;4.800;2022-10-15T04:17:07;11.90;99.90
21646;DHT22;10984;45.712;4.800;2022-10-15T04:19:33;11.80;99.90
21646;DHT22;10984;45.712;4.800;2022-10-15T04:21:58;11.90;99.90
21646;DHT22;10984;45.712;4.800;2022-10-15T04:24:24;11.80;99.90
21646;DHT22;10984;45.712;4.800;2022-10-15T04:26:50;11.80;99.90
21646;DHT22;10984;45.712;4.800;2022-10-15T04:29:16;11.80;99.90
21646;DHT22;10984;45.712;4.800;2022-10-15T04:31:42;11.80;99.90
21646;DHT22;10984;45.712;4.800;2022-10-15T04:34:08;11.80;99.90
21646;DHT22;10984;45.712;4.800;2022-10-15T04:36:34;11.80;99.90
21646;DHT22;10984;45.712;4.800;2022-10-15T04:39:00;11.80;99.90
21646;DHT22;10984;45.712;4.800;2022-10-15T04:41:26;11.80;99.90
21646;DHT22;10984;45.712;4.800;2022-10-15T04:43:52;11.80;99.90
21646;DHT22;10984;45.712;4.800;2022-10-15T04:46:18;11.70;99.90
21646;DHT22;10984;45.712;4.800;2022-10-15T04:48:46;11.70;99.90
21646;DHT22;10984;45.712;4.800;2022-10-15T04:51:15;11.70;99.90
21646;DHT22;10984;45.712;4.800;2022-10-15T04:53:41;11.60;99.90
21646;DHT22;10984;45.712;4.800;2022-10-15T04:56:10;11.60;99.90
21646;DHT22;10984;45.712;4.800;2022-10-15T04:58:38;11.60;99.90
21646;DHT22;10984;45.712;4.800;2022-10-15T05:01:09;11.60;99.90
21646;DHT22;10984;45.712;4.800;2022-10-15T05:03:53;11.60;99.90
21646;DHT22;10984;45.712;4.800;2022-10-15T05:06:20;11.60;99.90
21646;DHT22;10984;45.712;4.800;2022-10-15T05:08:47;11.60;99.90
21646;DHT22;10984;45.712;4.800;2022-10-15T05:11:16;11.60;99.90
21646;DHT22;10984;45.712;4.800;2022-10-15T05:13:43;11.70;99.90
21646;DHT22;10984;45.712;4.800;2022-10-15T05:19:11;11.70;99.90
21646;DHT22;10984;45.712;4.800;2022-10-15T05:21:38;11.60;99.90
21646;DHT22;10984;45.712;4.800;2022-10-15T05:24:04;11.60;99.90
21646;DHT22;10984;45.712;4.800;2022-10-15T05:26:30;11.70;99.90
21646;DHT22;10984;45.712;4.800;2022-10-15T05:28:57;11.70;99.90
21646;DHT22;10984;45.712;4.800;2022-10-15T05:31:27;11.70;99.90
21646;DHT22;10984;45.712;4.800;2022-10-15T05:33:53;11.70;99.90
21646;DHT22;10984;45.712;4.800;2022-10-15T05:36:38;11.70;99.90
21646;DHT22;10984;45.712;4.800;2022-10-15T05:39:04;11.70;99.90
21646;DHT22;10984;45.712;4.800;2022-10-15T05:41:34;11.70;99.90
21646;DHT22;10984;45.712;4.800;2022-10-15T05:44:00;11.80;99.90
21646;DHT22;10984;45.712;4.800;2022-10-15T05:46:26;11.80;99.90
21646;DHT22;10984;45.712;4.800;2022-10-15T05:48:54;11.90;99.90
21646;DHT22;10984;45.712;4.800;2022-10-15T05:51:22;12.00;99.90
21646;DHT22;10984;45.712;4.800;2022-10-15T05:53:51;12.00;99.90
21646;DHT22;10984;45.712;4.800;2022-10-15T05:56:17;12.00;99.90
21646;DHT22;10984;45.712;4.800;2022-10-15T05:58:42;12.10;99.90
21646;DHT22;10984;45.712;4.800;2022-10-15T06:01:10;12.20;99.90
21646;DHT22;10984;45.712;4.800;2022-10-15T06:03:36;12.20;99.90
21646;DHT22;10984;45.712;4.800;2022-10-15T06:06:02;12.30;99.90
21646;DHT22;10984;45.712;4.800;2022-10-15T06:08:29;12.30;99.90
21646;DHT22;10984;45.712;4.800;2022-10-15T06:11:00;12.40;99.90
21646;DHT22;10984;45.712;4.800;2022-10-15T06:13:26;12.40;99.90
21646;DHT22;10984;45.712;4.800;2022-10-15T06:15:51;12.50;99.90
21646;DHT22;10984;45.712;4.800;2022-10-15T06:18:17;12.50;99.90
21646;DHT22;10984;45.712;4.800;2022-10-15T06:20:43;12.60;99.90
21646;DHT22;10984;45.712;4.800;2022-10-15T06:23:10;12.60;99.90
21646;DHT22;10984;45.712;4.800;2022-10-15T06:25:36;12.70;99.90
21646;DHT22;10984;45.712;4.800;2022-10-15T06:28:02;12.70;99.90
21646;DHT22;10984;45.712;4.800;2022-10-15T06:30:28;12.80;99.90
21646;DHT22;10984;45.712;4.800;2022-10-15T06:32:55;12.90;99.90
21646;DHT22;10984;45.712;4.800;2022-10-15T06:35:22;12.90;99.90
21646;DHT22;10984;45.712;4.800;2022-10-15T06:37:48;13.00;99.90
21646;DHT22;10984;45.712;4.800;2022-10-15T06:40:14;13.10;99.90
21646;DHT22;10984;45.712;4.800;2022-10-15T06:42:40;13.20;99.90
21646;DHT22;10984;45.712;4.800;2022-10-15T06:45:07;13.20;99.90
21646;DHT22;10984;45.712;4.800;2022-10-15T06:47:35;13.30;99.90
21646;DHT22;10984;45.712;4.800;2022-10-15T06:50:02;13.40;99.90
21646;DHT22;10984;45.712;4.800;2022-10-15T06:52:30;13.50;99.90
21646;DHT22;10984;45.712;4.800;2022-10-15T06:54:55;13.50;99.90
21646;DHT22;10984;45.712;4.800;2022-10-15T06:57:21;13.60;99.90
21646;DHT22;10984;45.712;4.800;2022-10-15T06:59:49;13.60;99.90
21646;DHT22;10984;45.712;4.800;2022-10-15T07:02:15;13.70;99.90
21646;DHT22;10984;45.712;4.800;2022-10-15T07:04:42;13.70;99.90
21646;DHT22;10984;45.712;4.800;2022-10-15T07:07:08;13.80;99.90
21646;DHT22;10984;45.712;4.800;2022-10-15T07:09:33;13.80;99.90
21646;DHT22;10984;45.712;4.800;2022-10-15T07:11:59;13.90;99.90
21646;DHT22;10984;45.712;4.800;2022-10-15T07:14:25;14.00;99.90
21646;DHT22;10984;45.712;4.800;2022-10-15T07:16:51;14.00;99.90
21646;DHT22;10984;45.712;4.800;2022-10-15T07:19:16;14.10;99.90
21646;DHT22;10984;45.712;4.800;2022-10-15T07:21:42;14.10;99.90
21646;DHT22;10984;45.712;4.800;2022-10-15T07:24:08;14.20;99.90
21646;DHT22;10984;45.712;4.800;2022-10-15T07:26:33;14.20;99.90
21646;DHT22;10984;45.712;4.800;2022-10-15T07:28:59;14.30;99.90
21646;DHT22;10984;45.712;4.800;2022-10-15T07:31:25;14.30;99.90
21646;DHT22;10984;45.712;4.800;2022-10-15T07:33:51;14.40;99.90
21646;DHT22;10984;45.712;4.800;2022-10-15T07:36:17;14.50;99.90
21646;DHT22;10984;45.712;4.800;2022-10-15T07:38:45;14.70;99.90
21646;DHT22;10984;45.712;4.800;2022-10-15T07:41:10;14.90;99.90
21646;DHT22;10984;45.712;4.800;2022-10-15T07:43:36;15.10;99.90
21646;DHT22;10984;45.712;4.800;2022-10-15T07:46:03;15.30;99.90
21646;DHT22;10984;45.712;4.800;2022-10-15T07:48:29;15.40;99.90
21646;DHT22;10984;45.712;4.800;2022-10-15T07:50:56;15.60;99.90
21646;DHT22;10984;45.712;4.800;2022-10-15T07:53:22;15.70;99.90
21646;DHT22;10984;45.712;4.800;2022-10-15T07:55:47;15.90;99.90
21646;DHT22;10984;45.712;4.800;2022-10-15T07:58:13;16.10;99.90
21646;DHT22;10984;45.712;4.800;2022-10-15T08:00:39;16.30;99.90
21646;DHT22;10984;45.712;4.800;2022-10-15T08:03:04;16.40;99.90
21646;DHT22;10984;45.712;4.800;2022-10-15T08:05:30;16.60;99.90
21646;DHT22;10984;45.712;4.800;2022-10-15T08:07:56;16.70;99.90
21646;DHT22;10984;45.712;4.800;2022-10-15T08:10:22;16.90;99.90
21646;DHT22;10984;45.712;4.800;2022-10-15T08:12:47;17.10;99.90
21646;DHT22;10984;45.712;4.800;2022-10-15T08:15:13;17.30;99.90
21646;DHT22;10984;45.712;4.800;2022-10-15T08:17:38;17.60;99.90
21646;DHT22;10984;45.712;4.800;2022-10-15T08:20:05;17.80;99.90
21646;DHT22;10984;45.712;4.800;2022-10-15T08:22:32;17.90;99.90
21646;DHT22;10984;45.712;4.800;2022-10-15T08:24:57;17.90;99.90
21646;DHT22;10984;45.712;4.800;2022-10-15T08:27:23;18.00;99.90
21646;DHT22;10984;45.712;4.800;2022-10-15T08:29:49;18.00;99.90
21646;DHT22;10984;45.712;4.800;2022-10-15T08:32:14;18.00;99.90
21646;DHT22;10984;45.712;4.800;2022-10-15T08:34:40;17.90;99.90
21646;DHT22;10984;45.712;4.800;2022-10-15T08:37:06;17.90;99.90
21646;DHT22;10984;45.712;4.800;2022-10-15T08:39:31;17.90;99.90
21646;DHT22;10984;45.712;4.800;2022-10-15T08:41:59;17.90;99.90
21646;DHT22;10984;45.712;4.800;2022-10-15T08:44:33;17.80;99.90
21646;DHT22;10984;45.712;4.800;2022-10-15T08:52:59;17.80;99.90
21646;DHT22;10984;45.712;4.800;2022-10-15T08:55:31;17.90;99.90
21646;DHT22;10984;45.712;4.800;2022-10-15T09:06:52;18.00;99.90
21646;DHT22;10984;45.712;4.800;2022-10-15T09:15:27;18.10;99.90
21646;DHT22;10984;45.712;4.800;2022-10-15T09:17:56;18.10;99.90
21646;DHT22;10984;45.712;4.800;2022-10-15T09:20:25;18.10;99.90
21646;DHT22;10984;45.712;4.800;2022-10-15T09:22:54;18.20;99.90
21646;DHT22;10984;45.712;4.800;2022-10-15T09:25:21;18.20;99.90
21646;DHT22;10984;45.712;4.800;2022-10-15T09:27:48;18.30;99.90
21646;DHT22;10984;45.712;4.800;2022-10-15T09:42:37;18.60;99.90
21646;DHT22;10984;45.712;4.800;2022-10-15T09:47:49;18.80;99.90
21646;DHT22;10984;45.712;4.800;2022-10-15T09:50:15;18.90;99.90
21646;DHT22;10984;45.712;4.800;2022-10-15T09:58:29;19.20;99.90
21646;DHT22;10984;45.712;4.800;2022-10-15T10:01:21;19.20;99.90
21646;DHT22;10984;45.712;4.800;2022-10-15T10:03:51;19.20;99.90
21646;DHT22;10984;45.712;4.800;2022-10-15T10:06:17;19.30;99.90
21646;DHT22;10984;45.712;4.800;2022-10-15T10:09:01;19.40;99.90
21646;DHT22;10984;45.712;4.800;2022-10-15T10:12:07;19.40;99.90
21646;DHT22;10984;45.712;4.800;2022-10-15T10:25:52;19.60;99.90
21646;DHT22;10984;45.712;4.800;2022-10-15T10:31:11;19.60;99.90
21646;DHT22;10984;45.712;4.800;2022-10-15T10:33:55;19.60;99.90
21646;DHT22;10984;45.712;4.800;2022-10-15T10:44:42;19.70;99.90
21646;DHT22;10984;45.712;4.800;2022-10-15T10:47:26;19.70;99.90
21646;DHT22;10984;45.712;4.800;2022-10-15T10:49:56;19.80;99.90
21646;DHT22;10984;45.712;4.800;2022-10-15T10:55:12;19.90;99.90
21646;DHT22;10984;45.712;4.800;2022-10-15T11:03:36;20.00;99.90
21646;DHT22;10984;45.712;4.800;2022-10-15T12:04:53;20.70;99.90
21646;DHT22;10984;45.712;4.800;2022-10-15T12:07:23;20.70;99.90
21646;DHT22;10984;45.712;4.800;2022-10-15T12:09:59;20.70;99.90
21646;DHT22;10984;45.712;4.800;2022-10-15T12:15:46;20.80;99.90
21646;DHT22;10984;45.712;4.800;2022-10-15T12:20:59;20.70;99.90
21646;DHT22;10984;45.712;4.800;2022-10-15T12:29:20;20.70;99.90
21646;DHT22;10984;45.712;4.800;2022-10-15T12:31:49;20.70;99.90
21646;DHT22;10984;45.712;4.800;2022-10-15T12:34:38;20.80;99.90
21646;DHT22;10984;45.712;4.800;2022-10-15T12:37:17;20.80;99.90
21646;DHT22;10984;45.712;4.800;2022-10-15T12:39:43;20.70;99.90
21646;DHT22;10984;45.712;4.800;2022-10-15T12:48:36;20.50;99.90
21646;DHT22;10984;45.712;4.800;2022-10-15T12:56:50;20.60;99.90
21646;DHT22;10984;45.712;4.800;2022-10-15T13:02:42;20.70;99.90
21646;DHT22;10984;45.712;4.800;2022-10-15T13:07:49;20.90;99.90
21646;DHT22;10984;45.712;4.800;2022-10-15T13:13:03;20.90;99.90
21646;DHT22;10984;45.712;4.800;2022-10-15T13:15:29;20.80;99.90
21646;DHT22;10984;45.712;4.800;2022-10-15T13:17:58;20.90;99.90
21646;DHT22;10984;45.712;4.800;2022-10-15T13:20:44;20.90;99.90
21646;DHT22;10984;45.712;4.800;2022-10-15T13:23:29;20.80;99.90
21646;DHT22;10984;45.712;4.800;2022-10-15T13:28:58;20.80;99.90
21646;DHT22;10984;45.712;4.800;2022-10-15T13:31:43;20.90;99.90
21646;DHT22;10984;45.712;4.800;2022-10-15T13:34:46;21.00;99.90
21646;DHT22;10984;45.712;4.800;2022-10-15T13:37:19;21.00;99.90
21646;DHT22;10984;45.712;4.800;2022-10-15T13:39:49;21.00;99.90
21646;DHT22;10984;45.712;4.800;2022-10-15T13:42:17;21.00;99.90
21646;DHT22;10984;45.712;4.800;2022-10-15T13:45:14;21.10;99.90
21646;DHT22;10984;45.712;4.800;2022-10-15T13:47:45;21.10;99.90
21646;DHT22;10984;45.712;4.800;2022-10-15T13:50:31;21.10;99.90
21646;DHT22;10984;45.712;4.800;2022-10-15T13:56:20;21.10;99.90
21646;DHT22;10984;45.712;4.800;2022-10-15T13:58:47;21.00;99.90
21646;DHT22;10984;45.712;4.800;2022-10-15T14:04:00;21.00;99.90
21646;DHT22;10984;45.712;4.800;2022-10-15T14:09:31;21.00;99.90
21646;DHT22;10984;45.712;4.800;2022-10-15T14:11:58;21.00;99.90
21646;DHT22;10984;45.712;4.800;2022-10-15T14:14:44;20.90;99.90
21646;DHT22;10984;45.712;4.800;2022-10-15T14:17:28;20.90;99.90
21646;DHT22;10984;45.712;4.800;2022-10-15T14:20:00;20.80;99.90
21646;DHT22;10984;45.712;4.800;2022-10-15T14:22:27;20.60;99.90
21646;DHT22;10984;45.712;4.800;2022-10-15T14:24:54;20.50;99.90
21646;DHT22;10984;45.712;4.800;2022-10-15T14:27:23;20.50;99.90
21646;DHT22;10984;45.712;4.800;2022-10-15T14:29:51;20.40;99.90
21646;DHT22;10984;45.712;4.800;2022-10-15T14:35:02;20.60;99.90
21646;DHT22;10984;45.712;4.800;2022-10-15T14:37:57;20.80;99.90
21646;DHT22;10984;45.712;4.800;2022-10-15T14:40:23;20.90;99.90
21646;DHT22;10984;45.712;4.800;2022-10-15T14:43:01;21.00;99.90
21646;DHT22;10984;45.712;4.800;2022-10-15T14:45:40;21.10;99.90
21646;DHT22;10984;45.712;4.800;2022-10-15T14:51:28;21.10;99.90
21646;DHT22;10984;45.712;4.800;2022-10-15T14:53:54;21.10;99.90
21646;DHT22;10984;45.712;4.800;2022-10-15T14:56:38;21.10;99.90
21646;DHT22;10984;45.712;4.800;2022-10-15T14:59:15;21.00;99.90
21646;DHT22;10984;45.712;4.800;2022-10-15T15:07:23;20.90;99.90
21646;DHT22;10984;45.712;4.800;2022-10-15T15:09:49;20.90;99.90
21646;DHT22;10984;45.712;4.800;2022-10-15T15:12:25;20.80;99.90
21646;DHT22;10984;45.712;4.800;2022-10-15T15:14:52;20.80;99.90
21646;DHT22;10984;45.712;4.800;2022-10-15T15:17:20;20.70;99.90
21646;DHT22;10984;45.712;4.800;2022-10-15T15:19:47;20.70;99.90
21646;DHT22;10984;45.712;4.800;2022-10-15T15:22:16;20.60;99.90
21646;DHT22;10984;45.712;4.800;2022-10-15T15:24:42;20.50;99.90
21646;DHT22;10984;45.712;4.800;2022-10-15T15:27:20;20.50;99.90
21646;DHT22;10984;45.712;4.800;2022-10-15T15:29:47;20.40;99.90
21646;DHT22;10984;45.712;4.800;2022-10-15T15:32:13;20.30;99.90
21646;DHT22;10984;45.712;4.800;2022-10-15T15:34:38;20.30;99.90
21646;DHT22;10984;45.712;4.800;2022-10-15T15:37:12;20.20;99.90
21646;DHT22;10984;45.712;4.800;2022-10-15T15:39:38;20.20;99.90
21646;DHT22;10984;45.712;4.800;2022-10-15T15:42:03;20.20;99.90
21646;DHT22;10984;45.712;4.800;2022-10-15T15:44:29;20.10;99.90
21646;DHT22;10984;45.712;4.800;2022-10-15T15:46:55;20.10;99.90
21646;DHT22;10984;45.712;4.800;2022-10-15T15:49:20;20.10;99.90
21646;DHT22;10984;45.712;4.800;2022-10-15T15:51:46;19.90;99.90
21646;DHT22;10984;45.712;4.800;2022-10-15T15:54:11;19.90;99.90
21646;DHT22;10984;45.712;4.800;2022-10-15T15:56:37;19.80;99.90
21646;DHT22;10984;45.712;4.800;2022-10-15T15:59:05;19.70;99.90
21646;DHT22;10984;45.712;4.800;2022-10-15T16:01:30;19.60;99.90
21646;DHT22;10984;45.712;4.800;2022-10-15T16:03:56;19.60;99.90
21646;DHT22;10984;45.712;4.800;2022-10-15T16:06:22;19.60;99.90
21646;DHT22;10984;45.712;4.800;2022-10-15T16:08:50;19.60;99.90
21646;DHT22;10984;45.712;4.800;2022-10-15T16:11:17;19.60;99.90
21646;DHT22;10984;45.712;4.800;2022-10-15T16:13:42;19.60;99.90
21646;DHT22;10984;45.712;4.800;2022-10-15T16:16:09;19.60;99.90
21646;DHT22;10984;45.712;4.800;2022-10-15T16:18:34;19.70;99.90
21646;DHT22;10984;45.712;4.800;2022-10-15T16:21:02;19.60;99.90
21646;DHT22;10984;45.712;4.800;2022-10-15T16:23:27;19.60;99.90
21646;DHT22;10984;45.712;4.800;2022-10-15T16:25:53;19.60;99.90
21646;DHT22;10984;45.712;4.800;2022-10-15T16:28:22;19.60;99.90
21646;DHT22;10984;45.712;4.800;2022-10-15T16:30:48;19.50;99.90
21646;DHT22;10984;45.712;4.800;2022-10-15T16:33:13;19.60;99.90
21646;DHT22;10984;45.712;4.800;2022-10-15T16:35:39;19.50;99.90
21646;DHT22;10984;45.712;4.800;2022-10-15T16:38:05;19.40;99.90
21646;DHT22;10984;45.712;4.800;2022-10-15T16:40:31;19.40;99.90
21646;DHT22;10984;45.712;4.800;2022-10-15T16:42:57;19.30;99.90
21646;DHT22;10984;45.712;4.800;2022-10-15T16:45:23;19.20;99.90
21646;DHT22;10984;45.712;4.800;2022-10-15T16:47:48;19.10;99.90
21646;DHT22;10984;45.712;4.800;2022-10-15T16:50:14;19.00;99.90
21646;DHT22;10984;45.712;4.800;2022-10-15T16:52:40;19.00;99.90
21646;DHT22;10984;45.712;4.800;2022-10-15T16:55:06;18.90;99.90
21646;DHT22;10984;45.712;4.800;2022-10-15T16:57:31;18.80;99.90
21646;DHT22;10984;45.712;4.800;2022-10-15T16:59:57;18.70;99.90
21646;DHT22;10984;45.712;4.800;2022-10-15T17:02:23;18.60;99.90
21646;DHT22;10984;45.712;4.800;2022-10-15T17:04:48;18.50;99.90
21646;DHT22;10984;45.712;4.800;2022-10-15T17:07:14;18.40;99.90
21646;DHT22;10984;45.712;4.800;2022-10-15T17:09:40;18.30;99.90
21646;DHT22;10984;45.712;4.800;2022-10-15T17:12:06;18.20;99.90
21646;DHT22;10984;45.712;4.800;2022-10-15T17:14:31;18.10;99.90
21646;DHT22;10984;45.712;4.800;2022-10-15T17:16:57;18.00;99.90
21646;DHT22;10984;45.712;4.800;2022-10-15T17:19:24;18.00;99.90
21646;DHT22;10984;45.712;4.800;2022-10-15T17:21:51;17.90;99.90
21646;DHT22;10984;45.712;4.800;2022-10-15T17:24:18;17.80;99.90
21646;DHT22;10984;45.712;4.800;2022-10-15T17:26:44;17.70;99.90
21646;DHT22;10984;45.712;4.800;2022-10-15T17:29:13;17.70;99.90
21646;DHT22;10984;45.712;4.800;2022-10-15T17:31:40;17.60;99.90
21646;DHT22;10984;45.712;4.800;2022-10-15T17:34:09;17.60;99.90
21646;DHT22;10984;45.712;4.800;2022-10-15T17:36:41;17.60;99.90
21646;DHT22;10984;45.712;4.800;2022-10-15T17:39:11;17.60;99.90
21646;DHT22;10984;45.712;4.800;2022-10-15T17:41:37;17.50;99.90
21646;DHT22;10984;45.712;4.800;2022-10-15T17:44:03;17.50;99.90
21646;DHT22;10984;45.712;4.800;2022-10-15T17:46:29;17.60;99.90
21646;DHT22;10984;45.712;4.800;2022-10-15T17:48:56;17.60;99.90
21646;DHT22;10984;45.712;4.800;2022-10-15T17:51:27;17.60;99.90
21646;DHT22;10984;45.712;4.800;2022-10-15T17:53:54;17.60;99.90
21646;DHT22;10984;45.712;4.800;2022-10-15T17:56:23;17.60;99.90
21646;DHT22;10984;45.712;4.800;2022-10-15T17:58:49;17.60;99.90
21646;DHT22;10984;45.712;4.800;2022-10-15T18:01:20;17.60;99.90
21646;DHT22;10984;45.712;4.800;2022-10-15T18:03:47;17.50;99.90
21646;DHT22;10984;45.712;4.800;2022-10-15T18:06:16;17.50;99.90
21646;DHT22;10984;45.712;4.800;2022-10-15T18:08:42;17.40;99.90
21646;DHT22;10984;45.712;4.800;2022-10-15T18:11:09;17.30;99.90
21646;DHT22;10984;45.712;4.800;2022-10-15T18:13:35;17.30;99.90
21646;DHT22;10984;45.712;4.800;2022-10-15T18:16:01;17.20;99.90
21646;DHT22;10984;45.712;4.800;2022-10-15T18:18:27;17.10;99.90
21646;DHT22;10984;45.712;4.800;2022-10-15T18:20:53;17.00;99.90
21646;DHT22;10984;45.712;4.800;2022-10-15T18:23:19;17.00;99.90
21646;DHT22;10984;45.712;4.800;2022-10-15T18:25:45;16.90;99.90
21646;DHT22;10984;45.712;4.800;2022-10-15T18:28:11;16.80;99.90
21646;DHT22;10984;45.712;4.800;2022-10-15T18:30:39;16.80;99.90
21646;DHT22;10984;45.712;4.800;2022-10-15T18:33:08;16.70;99.90
21646;DHT22;10984;45.712;4.800;2022-10-15T18:35:35;16.60;99.90
21646;DHT22;10984;45.712;4.800;2022-10-15T18:38:01;16.60;99.90
21646;DHT22;10984;45.712;4.800;2022-10-15T18:40:30;16.50;99.90
21646;DHT22;10984;45.712;4.800;2022-10-15T18:42:56;16.50;99.90
21646;DHT22;10984;45.712;4.800;2022-10-15T18:45:21;16.50;99.90
21646;DHT22;10984;45.712;4.800;2022-10-15T18:47:47;16.40;99.90
21646;DHT22;10984;45.712;4.800;2022-10-15T18:50:12;16.40;99.90
21646;DHT22;10984;45.712;4.800;2022-10-15T18:52:38;16.30;99.90
21646;DHT22;10984;45.712;4.800;2022-10-15T18:55:04;16.30;99.90
21646;DHT22;10984;45.712;4.800;2022-10-15T18:57:30;16.20;99.90
21646;DHT22;10984;45.712;4.800;2022-10-15T18:59:56;16.20;99.90
21646;DHT22;10984;45.712;4.800;2022-10-15T19:02:21;16.10;99.90
21646;DHT22;10984;45.712;4.800;2022-10-15T19:04:47;16.10;99.90
21646;DHT22;10984;45.712;4.800;2022-10-15T19:07:13;16.10;99.90
21646;DHT22;10984;45.712;4.800;2022-10-15T19:09:38;16.10;99.90
21646;DHT22;10984;45.712;4.800;2022-10-15T19:12:04;16.00;99.90
21646;DHT22;10984;45.712;4.800;2022-10-15T19:14:30;16.00;99.90
21646;DHT22;10984;45.712;4.800;2022-10-15T19:16:55;16.00;99.90
21646;DHT22;10984;45.712;4.800;2022-10-15T19:19:23;16.00;99.90
21646;DHT22;10984;45.712;4.800;2022-10-15T19:21:50;15.90;99.90
21646;DHT22;10984;45.712;4.800;2022-10-15T19:24:17;15.90;99.90
21646;DHT22;10984;45.712;4.800;2022-10-15T19:26:44;15.90;99.90
21646;DHT22;10984;45.712;4.800;2022-10-15T19:29:10;16.00;99.90
21646;DHT22;10984;45.712;4.800;2022-10-15T19:31:39;15.90;99.90
21646;DHT22;10984;45.712;4.800;2022-10-15T19:34:05;15.90;99.90
21646;DHT22;10984;45.712;4.800;2022-10-15T19:36:34;15.90;99.90